Aviation Digital Data Service (ADDS)

Output produced by TAFs form (0652 UTC 19 April 2014)
found at http://www.aviationweather.gov/adds/tafs/
 
KRIC 190549Z 1906/2006 11004KT P6SM VCSH SCT040 OVC120 
     FM191000 06004KT P6SM -RA BKN040 
     FM191400 05012KT P6SM SCT040 OVC060 
     FM200200 VRB03KT P6SM SCT250